createdAt,value
2023-02-25T00:01:33.510Z,2.30
2023-02-25T00:04:22.330Z,2.30
2023-02-25T00:07:11.180Z,2.30
2023-02-25T00:09:59.876Z,2.30
2023-02-25T00:12:48.533Z,2.30
2023-02-25T00:15:41.662Z,2.20
2023-02-25T00:18:31.246Z,2.30
2023-02-25T00:21:19.832Z,2.20
2023-02-25T00:24:16.363Z,2.20
2023-02-25T00:27:05.999Z,2.20
2023-02-25T00:29:54.848Z,2.20
2023-02-25T00:32:44.917Z,2.20
2023-02-25T00:35:34.362Z,2.20
2023-02-25T00:38:23.028Z,2.20
2023-02-25T00:41:12.887Z,2.20
2023-02-25T00:44:02.825Z,2.20
2023-02-25T00:46:51.474Z,2.20
2023-02-25T00:49:42.133Z,2.20
2023-02-25T00:52:30.866Z,2.30
2023-02-25T00:55:19.733Z,2.20
2023-02-25T00:58:08.362Z,2.20
2023-02-25T01:00:57.219Z,2.20
2023-02-25T01:03:45.904Z,2.20
2023-02-25T01:06:37.700Z,2.10
2023-02-25T01:09:26.823Z,2.00
2023-02-25T01:12:15.792Z,1.90
2023-02-25T01:15:05.054Z,1.90
2023-02-25T01:17:53.666Z,1.80
2023-02-25T01:20:42.398Z,1.80
2023-02-25T01:23:32.406Z,1.70
2023-02-25T01:26:21.386Z,1.80
2023-02-25T01:29:11.672Z,1.70
2023-02-25T01:32:02.230Z,1.70
2023-02-25T01:34:50.965Z,1.80
2023-02-25T01:37:39.563Z,1.70
2023-02-25T01:40:29.573Z,1.70
2023-02-25T01:43:19.150Z,1.70
2023-02-25T01:46:08.037Z,1.80
2023-02-25T01:48:57.124Z,1.80
2023-02-25T01:51:48.565Z,1.80
2023-02-25T01:54:38.360Z,1.80
2023-02-25T01:57:28.652Z,1.80
2023-02-25T02:00:18.178Z,1.80
2023-02-25T02:03:15.955Z,1.80
2023-02-25T02:06:11.219Z,1.80
2023-02-25T02:09:00.377Z,1.80
2023-02-25T02:11:48.953Z,1.80
2023-02-25T02:14:43.210Z,1.80
2023-02-25T02:17:36.807Z,1.80
2023-02-25T02:20:28.638Z,1.90
2023-02-25T02:23:45.868Z,1.80
2023-02-25T02:27:03.530Z,1.90
2023-02-25T02:30:32.431Z,1.90
2023-02-25T02:33:30.888Z,1.90
2023-02-25T02:36:27.859Z,1.80
2023-02-25T02:39:27.220Z,1.80
2023-02-25T02:42:27.610Z,1.80
2023-02-25T02:45:23.125Z,1.80
2023-02-25T02:48:16.225Z,1.80
2023-02-25T02:51:12.679Z,1.80
2023-02-25T02:54:06.012Z,1.80
2023-02-25T02:56:57.385Z,1.80
2023-02-25T02:59:52.284Z,1.80
2023-02-25T03:02:43.065Z,1.80
2023-02-25T03:05:34.498Z,1.80
2023-02-25T03:08:28.245Z,1.90
2023-02-25T03:11:17.529Z,1.90
2023-02-25T03:14:09.150Z,1.90
2023-02-25T03:17:02.322Z,1.90
2023-02-25T03:19:55.335Z,1.80
2023-02-25T03:22:47.955Z,1.80
2023-02-25T03:25:47.664Z,1.80
2023-02-25T03:28:36.695Z,1.80
2023-02-25T03:31:29.543Z,1.80
2023-02-25T03:34:22.364Z,1.80
2023-02-25T03:37:15.855Z,1.80
2023-02-25T03:40:11.459Z,1.80
2023-02-25T03:43:08.396Z,1.80
2023-02-25T03:45:58.021Z,1.80
2023-02-25T03:48:47.256Z,1.80
2023-02-25T03:51:40.681Z,1.70
2023-02-25T03:54:29.340Z,1.70
2023-02-25T03:57:18.080Z,1.80
2023-02-25T04:00:15.979Z,1.70
2023-02-25T04:03:05.444Z,1.70
2023-02-25T04:05:54.044Z,1.70
2023-02-25T04:08:44.159Z,1.70
2023-02-25T04:11:32.813Z,1.70
2023-02-25T04:14:21.393Z,1.70
2023-02-25T04:17:11.792Z,1.70
2023-02-25T04:20:00.414Z,1.70
2023-02-25T04:22:49.020Z,1.60
2023-02-25T04:25:37.736Z,1.70
2023-02-25T04:28:26.403Z,1.60
2023-02-25T04:31:15.041Z,1.60
2023-02-25T04:34:05.258Z,1.60
2023-02-25T04:36:53.955Z,1.50
2023-02-25T04:39:42.686Z,1.50
2023-02-25T04:42:31.279Z,1.60
2023-02-25T04:45:20.517Z,1.50
2023-02-25T04:48:09.225Z,1.50
2023-02-25T04:51:02.529Z,1.60
2023-02-25T04:53:51.184Z,1.60
2023-02-25T04:56:40.386Z,1.50
2023-02-25T04:59:29.095Z,1.50
2023-02-25T05:02:17.786Z,1.50
2023-02-25T05:05:06.890Z,1.50
2023-02-25T05:07:57.638Z,1.50
2023-02-25T05:10:46.234Z,1.50
2023-02-25T05:13:34.883Z,1.50
2023-02-25T05:16:24.220Z,1.50
2023-02-25T05:19:17.136Z,1.60
2023-02-25T05:22:05.779Z,1.50
2023-02-25T05:24:56.321Z,1.50
2023-02-25T05:27:45.157Z,1.50
2023-02-25T05:30:33.762Z,1.50
2023-02-25T05:33:23.557Z,1.50
2023-02-25T05:36:14.592Z,1.50
2023-02-25T05:39:03.271Z,1.50
2023-02-25T05:41:53.332Z,1.50
2023-02-25T05:44:41.950Z,1.40
2023-02-25T05:47:30.597Z,1.50
2023-02-25T05:50:19.400Z,1.60
2023-02-25T05:53:08.390Z,1.50
2023-02-25T05:55:57.065Z,1.60
2023-02-25T05:58:48.591Z,1.50
2023-02-25T06:01:37.389Z,1.50
2023-02-25T06:04:26.313Z,1.40
2023-02-25T06:07:14.906Z,1.40
2023-02-25T06:10:03.842Z,1.30
2023-02-25T06:12:52.782Z,1.30
2023-02-25T06:15:44.077Z,1.30
2023-02-25T06:18:36.748Z,1.30
2023-02-25T06:21:25.484Z,1.30
2023-02-25T06:24:15.588Z,1.20
2023-02-25T06:27:04.316Z,1.30
2023-02-25T06:29:52.978Z,1.30
2023-02-25T06:32:43.101Z,1.30
2023-02-25T06:35:31.917Z,1.20
2023-02-25T06:38:21.214Z,1.20
2023-02-25T06:41:14.256Z,1.20
2023-02-25T06:44:04.377Z,1.30
2023-02-25T06:46:55.610Z,1.30
2023-02-25T06:49:45.680Z,1.30
2023-02-25T06:52:34.524Z,1.30
2023-02-25T06:55:23.235Z,1.30
2023-02-25T06:58:12.203Z,1.30
2023-02-25T07:01:02.123Z,1.30
2023-02-25T07:03:50.931Z,1.30
2023-02-25T07:06:40.957Z,1.30
2023-02-25T07:09:29.792Z,1.30
2023-02-25T07:12:18.466Z,1.30
2023-02-25T07:15:08.321Z,1.40
2023-02-25T07:17:56.922Z,1.40
2023-02-25T07:20:45.565Z,1.40
2023-02-25T07:23:35.801Z,1.40
2023-02-25T07:26:28.273Z,1.40
2023-02-25T07:29:17.170Z,1.40
2023-02-25T07:32:06.274Z,1.40
2023-02-25T07:34:55.003Z,1.40
2023-02-25T07:37:43.643Z,1.40
2023-02-25T07:40:33.666Z,1.50
2023-02-25T07:43:22.341Z,1.50
2023-02-25T07:46:13.177Z,1.50
2023-02-25T07:49:01.985Z,1.50
2023-02-25T07:51:50.676Z,1.60
2023-02-25T07:54:39.380Z,1.60
2023-02-25T07:57:29.703Z,1.60
2023-02-25T08:00:19.162Z,1.60
2023-02-25T08:03:07.828Z,1.60
2023-02-25T08:05:57.573Z,1.60
2023-02-25T08:08:46.492Z,1.70
2023-02-25T08:11:35.488Z,1.80
2023-02-25T08:14:25.572Z,1.80
2023-02-25T08:17:15.156Z,1.80
2023-02-25T08:20:06.149Z,1.80
2023-02-25T08:22:57.131Z,1.80
2023-02-25T08:25:45.750Z,1.70
2023-02-25T08:28:37.092Z,1.70
2023-02-25T08:31:27.982Z,1.70
2023-02-25T08:34:16.991Z,1.80
2023-02-25T08:37:05.582Z,1.90
2023-02-25T08:39:56.573Z,1.80
2023-02-25T08:42:45.151Z,1.90
2023-02-25T08:45:33.842Z,1.90
2023-02-25T08:48:24.108Z,1.80
2023-02-25T08:51:14.944Z,1.90
2023-02-25T08:54:05.677Z,2.00
2023-02-25T08:56:55.594Z,1.80
2023-02-25T08:59:44.218Z,1.90
2023-02-25T09:02:32.787Z,1.90
2023-02-25T09:05:24.334Z,1.90
2023-02-25T09:08:12.908Z,2.00
2023-02-25T09:11:01.515Z,2.10
2023-02-25T09:13:50.146Z,2.10
2023-02-25T09:16:39.081Z,2.10
2023-02-25T09:19:27.786Z,2.30
2023-02-25T09:22:19.764Z,2.30
2023-02-25T09:25:09.155Z,2.40
2023-02-25T09:27:58.156Z,2.30
2023-02-25T09:30:47.727Z,2.30
2023-02-25T09:33:37.772Z,2.30
2023-02-25T09:36:26.416Z,2.20
2023-02-25T09:39:16.431Z,2.20
2023-02-25T09:42:10.573Z,2.30
2023-02-25T09:45:02.902Z,2.60
2023-02-25T09:47:56.440Z,2.70
2023-02-25T09:50:51.972Z,2.70
2023-02-25T09:53:44.800Z,2.80
2023-02-25T09:56:36.170Z,3.00
2023-02-25T09:59:24.812Z,3.40
2023-02-25T10:02:28.034Z,3.50
2023-02-25T10:05:27.089Z,3.50
2023-02-25T10:08:21.253Z,3.40
2023-02-25T10:11:14.071Z,3.40
2023-02-25T10:14:13.379Z,3.40
2023-02-25T10:17:09.080Z,3.40
2023-02-25T10:20:18.515Z,3.50
2023-02-25T10:23:16.335Z,3.70
2023-02-25T10:26:13.321Z,4.00
2023-02-25T10:29:05.921Z,4.30
2023-02-25T10:31:59.221Z,4.10
2023-02-25T10:34:47.999Z,3.80
2023-02-25T10:37:38.834Z,3.50
2023-02-25T10:40:29.279Z,3.50
2023-02-25T10:43:22.451Z,3.70
2023-02-25T10:46:19.912Z,3.70
2023-02-25T10:49:17.419Z,3.80
2023-02-25T10:52:10.381Z,3.90
2023-02-25T10:54:59.735Z,3.70
2023-02-25T10:57:48.369Z,3.70
2023-02-25T11:00:38.630Z,3.70
2023-02-25T11:03:32.119Z,3.60
2023-02-25T11:06:25.455Z,3.40
2023-02-25T11:09:30.402Z,3.50
2023-02-25T11:12:20.548Z,3.60
2023-02-25T11:15:43.059Z,3.60
2023-02-25T11:18:35.683Z,3.40
2023-02-25T11:21:32.496Z,3.20
2023-02-25T11:24:25.383Z,3.10
2023-02-25T11:27:27.148Z,2.90
2023-02-25T11:30:21.280Z,2.70
2023-02-25T11:33:24.516Z,2.50
2023-02-25T11:36:21.082Z,2.10
2023-02-25T11:39:18.344Z,1.90
2023-02-25T11:42:24.919Z,1.80
2023-02-25T11:45:18.611Z,1.90
2023-02-25T11:48:18.939Z,2.00
2023-02-25T11:51:17.205Z,2.10
2023-02-25T11:54:26.782Z,2.10
2023-02-25T11:57:22.387Z,2.20
2023-02-25T12:00:26.405Z,2.20
2023-02-25T12:03:35.743Z,2.20
2023-02-25T12:06:43.971Z,2.30
2023-02-25T12:10:08.356Z,2.40
2023-02-25T12:13:36.956Z,2.30
2023-02-25T12:16:55.884Z,2.30
2023-02-25T12:20:34.908Z,2.40
2023-02-25T12:23:59.536Z,2.60
2023-02-25T12:27:35.092Z,2.70
2023-02-25T12:31:00.292Z,2.90
2023-02-25T12:34:13.035Z,2.90
2023-02-25T12:37:18.538Z,2.90
2023-02-25T12:40:28.822Z,2.90
2023-02-25T12:43:29.101Z,3.00
2023-02-25T12:46:39.637Z,3.10
2023-02-25T12:49:55.999Z,3.30
2023-02-25T12:52:59.150Z,3.80
2023-02-25T12:56:17.845Z,4.50
2023-02-25T12:59:34.129Z,4.50
2023-02-25T13:03:04.455Z,4.10
2023-02-25T13:06:08.817Z,3.50
2023-02-25T13:09:26.338Z,2.90
2023-02-25T13:12:28.526Z,2.30
2023-02-25T13:15:23.489Z,2.00
2023-02-25T13:18:20.171Z,1.90
2023-02-25T13:21:29.757Z,1.90
2023-02-25T13:24:39.567Z,2.10
2023-02-25T13:27:41.663Z,2.50
2023-02-25T13:30:43.389Z,2.70
2023-02-25T13:33:41.533Z,2.80
2023-02-25T13:36:56.624Z,2.80
2023-02-25T13:40:00.285Z,3.80
2023-02-25T13:43:16.788Z,5.10
2023-02-25T13:46:37.237Z,5.80
2023-02-25T13:49:42.171Z,6.30
2023-02-25T13:52:36.598Z,7.10
2023-02-25T13:55:38.895Z,7.00
2023-02-25T13:58:46.191Z,6.50
2023-02-25T14:01:54.066Z,6.80
2023-02-25T14:05:17.652Z,6.80
2023-02-25T14:08:24.461Z,6.20
2023-02-25T14:11:30.299Z,5.40
2023-02-25T14:14:42.715Z,4.70
2023-02-25T14:18:10.971Z,4.20
2023-02-25T14:21:14.681Z,3.80
2023-02-25T14:24:08.859Z,3.40
2023-02-25T14:27:06.473Z,3.30
2023-02-25T14:30:12.168Z,3.30
2023-02-25T14:33:22.037Z,3.40
2023-02-25T14:36:38.023Z,3.30
2023-02-25T14:39:40.113Z,3.40
2023-02-25T14:42:39.315Z,3.50
2023-02-25T14:45:33.594Z,3.50
2023-02-25T14:48:29.913Z,3.30
2023-02-25T14:51:52.043Z,3.10
2023-02-25T14:55:21.029Z,2.90
2023-02-25T14:58:42.116Z,2.70
2023-02-25T15:02:03.941Z,2.60
2023-02-25T15:05:24.869Z,2.60
2023-02-25T15:08:49.823Z,2.60
2023-02-25T15:11:52.272Z,2.80
2023-02-25T15:15:15.531Z,2.80
2023-02-25T15:18:34.826Z,2.80
2023-02-25T15:21:41.264Z,2.70
2023-02-25T15:24:49.756Z,2.50
2023-02-25T15:27:49.974Z,2.30
2023-02-25T15:31:20.315Z,2.30
2023-02-25T15:34:45.233Z,2.20
2023-02-25T15:37:38.003Z,2.20
2023-02-25T15:40:50.667Z,2.20
2023-02-25T15:43:44.753Z,2.20
2023-02-25T15:46:44.838Z,2.20
2023-02-25T15:49:35.888Z,2.20
2023-02-25T15:52:53.725Z,2.30
2023-02-25T15:55:43.704Z,2.40
2023-02-25T15:58:52.262Z,2.40
2023-02-25T16:01:43.180Z,2.30
2023-02-25T16:04:56.377Z,2.30
2023-02-25T16:07:47.005Z,2.40
2023-02-25T16:10:41.215Z,2.30
2023-02-25T16:13:33.533Z,2.20
2023-02-25T16:16:24.511Z,2.00
2023-02-25T16:19:17.854Z,1.80
2023-02-25T16:22:10.296Z,1.70
2023-02-25T16:25:01.815Z,1.60
2023-02-25T16:27:58.188Z,1.50
2023-02-25T16:30:54.397Z,1.50
2023-02-25T16:33:52.635Z,1.50
2023-02-25T16:36:49.883Z,1.50
2023-02-25T16:39:39.544Z,1.50
2023-02-25T16:42:28.271Z,1.50
2023-02-25T16:45:29.845Z,1.40
2023-02-25T16:48:28.755Z,1.40
2023-02-25T16:51:25.193Z,1.30
2023-02-25T16:54:18.517Z,1.30
2023-02-25T16:57:09.725Z,1.30
2023-02-25T17:00:19.405Z,1.30
2023-02-25T17:03:12.538Z,1.30
2023-02-25T17:06:07.484Z,1.20
2023-02-25T17:08:57.485Z,1.20
2023-02-25T17:11:49.695Z,1.20
2023-02-25T17:14:38.331Z,1.20
2023-02-25T17:17:30.308Z,1.20
2023-02-25T17:20:24.437Z,1.20
2023-02-25T17:23:15.528Z,1.10
2023-02-25T17:26:06.519Z,1.00
2023-02-25T17:28:58.710Z,1.00
2023-02-25T17:31:49.196Z,1.00
2023-02-25T17:34:38.388Z,0.90
2023-02-25T17:37:29.690Z,0.80
2023-02-25T17:40:28.114Z,0.80
2023-02-25T17:43:21.249Z,0.80
2023-02-25T17:46:24.665Z,0.70
2023-02-25T17:49:22.503Z,0.80
2023-02-25T17:52:20.249Z,0.80
2023-02-25T17:55:23.496Z,0.80
2023-02-25T17:58:24.965Z,0.70
2023-02-25T18:01:23.978Z,0.70
2023-02-25T18:04:24.452Z,0.70
2023-02-25T18:07:23.228Z,0.70
2023-02-25T18:10:48.853Z,0.70
2023-02-25T18:13:39.820Z,0.60
2023-02-25T18:16:44.772Z,0.50
2023-02-25T18:19:39.415Z,0.50
2023-02-25T18:22:33.146Z,0.50
2023-02-25T18:25:40.353Z,0.50
2023-02-25T18:28:28.996Z,0.50
2023-02-25T18:31:20.317Z,0.50
2023-02-25T18:34:09.047Z,0.50
2023-02-25T18:36:57.622Z,0.40
2023-02-25T18:39:48.454Z,0.50
2023-02-25T18:42:37.061Z,0.40
2023-02-25T18:45:27.091Z,0.40
2023-02-25T18:48:17.325Z,0.40
2023-02-25T18:51:11.282Z,0.30
2023-02-25T18:54:00.091Z,0.30
2023-02-25T18:56:48.662Z,0.20
2023-02-25T18:59:37.250Z,0.20
2023-02-25T19:02:29.819Z,0.20
2023-02-25T19:05:21.424Z,0.10
2023-02-25T19:08:13.413Z,0.10
2023-02-25T19:11:02.053Z,0.10
2023-02-25T19:13:50.974Z,0.10
2023-02-25T19:16:39.572Z,0.00
2023-02-25T19:19:28.165Z,0.10
2023-02-25T19:22:18.202Z,0.00
2023-02-25T19:25:11.539Z,0.00
2023-02-25T19:28:00.124Z,0.00
2023-02-25T19:30:48.811Z,0.00
2023-02-25T19:33:37.636Z,0.00
2023-02-25T19:36:27.041Z,0.10
2023-02-25T19:39:17.401Z,0.10
2023-02-25T19:42:06.156Z,0.00
2023-02-25T19:44:54.743Z,0.00
2023-02-25T19:47:43.404Z,0.00
2023-02-25T19:50:34.850Z,0.00
2023-02-25T19:53:23.433Z,0.00
2023-02-25T19:56:13.524Z,0.00
2023-02-25T19:59:02.529Z,-0.10
2023-02-25T20:01:51.324Z,-0.10
2023-02-25T20:04:40.065Z,-0.20
2023-02-25T20:07:28.713Z,-0.30
2023-02-25T20:10:18.240Z,-0.30
2023-02-25T20:13:08.269Z,-0.30
2023-02-25T20:16:01.339Z,-0.30
2023-02-25T20:18:50.912Z,-0.30
2023-02-25T20:21:39.568Z,-0.40
2023-02-25T20:24:28.315Z,-0.40
2023-02-25T20:27:17.120Z,-0.40
2023-02-25T20:30:08.861Z,-0.40
2023-02-25T20:32:57.469Z,-0.50
2023-02-25T20:35:46.361Z,-0.50
2023-02-25T20:38:39.333Z,-0.50
2023-02-25T20:41:28.362Z,-0.50
2023-02-25T20:44:17.790Z,-0.50
2023-02-25T20:47:08.876Z,-0.50
2023-02-25T20:49:58.481Z,-0.60
2023-02-25T20:52:47.228Z,-0.60
2023-02-25T20:55:35.822Z,-0.60
2023-02-25T20:58:24.390Z,-0.60
2023-02-25T21:01:13.022Z,-0.60
2023-02-25T21:04:03.398Z,-0.60
2023-02-25T21:06:52.036Z,-0.60
2023-02-25T21:09:40.732Z,-0.60
2023-02-25T21:12:29.449Z,-0.60
2023-02-25T21:15:18.211Z,-0.70
2023-02-25T21:18:06.943Z,-0.70
2023-02-25T21:21:00.103Z,-0.70
2023-02-25T21:23:52.664Z,-0.70
2023-02-25T21:26:41.398Z,-0.80
2023-02-25T21:29:30.244Z,-0.80
2023-02-25T21:32:18.999Z,-0.80
2023-02-25T21:35:08.108Z,-0.80
2023-02-25T21:37:58.229Z,-0.80
2023-02-25T21:40:47.212Z,-0.90
2023-02-25T21:43:36.298Z,-0.90
2023-02-25T21:46:25.183Z,-0.90
2023-02-25T21:49:14.045Z,-0.90
2023-02-25T21:52:02.968Z,-0.90
2023-02-25T21:54:54.049Z,-1.00
2023-02-25T21:57:42.699Z,-1.00
2023-02-25T22:00:31.491Z,-1.00
2023-02-25T22:03:20.070Z,-1.00
2023-02-25T22:06:09.232Z,-1.00
2023-02-25T22:08:58.342Z,-1.00
2023-02-25T22:11:48.389Z,-1.10
2023-02-25T22:14:37.125Z,-1.10
2023-02-25T22:17:25.854Z,-1.20
2023-02-25T22:20:14.811Z,-1.20
2023-02-25T22:23:03.492Z,-1.20
2023-02-25T22:25:52.159Z,-1.10
2023-02-25T22:28:42.993Z,-1.10
2023-02-25T22:31:32.710Z,-1.20
2023-02-25T22:34:21.746Z,-1.20
2023-02-25T22:37:10.456Z,-1.20
2023-02-25T22:39:59.072Z,-1.20
2023-02-25T22:42:47.710Z,-1.30
2023-02-25T22:45:37.769Z,-1.30
2023-02-25T22:48:26.417Z,-1.20
2023-02-25T22:51:18.882Z,-1.30
2023-02-25T22:54:07.838Z,-1.30
2023-02-25T22:56:56.702Z,-1.30
2023-02-25T22:59:46.170Z,-1.30
2023-02-25T23:02:36.202Z,-1.30
2023-02-25T23:05:24.796Z,-1.40
2023-02-25T23:08:13.542Z,-1.40
2023-02-25T23:11:09.897Z,-1.40
2023-02-25T23:14:00.315Z,-1.40
2023-02-25T23:16:48.945Z,-1.40
2023-02-25T23:19:39.294Z,-1.40
2023-02-25T23:22:30.297Z,-1.40
2023-02-25T23:25:19.198Z,-1.40
2023-02-25T23:28:09.623Z,-1.40
2023-02-25T23:30:58.285Z,-1.50
2023-02-25T23:33:47.096Z,-1.50
2023-02-25T23:36:37.838Z,-1.50
2023-02-25T23:39:26.780Z,-1.50
2023-02-25T23:42:15.446Z,-1.50
2023-02-25T23:45:04.279Z,-1.50
2023-02-25T23:47:53.095Z,-1.60
2023-02-25T23:50:41.762Z,-1.60
2023-02-25T23:53:31.887Z,-1.60
2023-02-25T23:56:21.457Z,-1.60
2023-02-25T23:59:11.103Z,-1.60
